sensor_id;sensor_type;location;lat;lon;timestamp;P1;durP1;ratioP1;P2;durP2;ratioP2
20042;SDS011;10182;52.896;6.496;2023-09-30T00:00:40;24.80;;;6.43;;
20042;SDS011;10182;52.896;6.496;2023-09-30T00:05:42;14.23;;;5.93;;
20042;SDS011;10182;52.896;6.496;2023-09-30T00:10:45;17.47;;;6.10;;
20042;SDS011;10182;52.896;6.496;2023-09-30T00:15:47;17.00;;;5.87;;
20042;SDS011;10182;52.896;6.496;2023-09-30T00:20:48;18.23;;;5.80;;
20042;SDS011;10182;52.896;6.496;2023-09-30T00:25:52;16.53;;;6.10;;
20042;SDS011;10182;52.896;6.496;2023-09-30T00:30:53;16.30;;;6.67;;
20042;SDS011;10182;52.896;6.496;2023-09-30T00:35:55;16.07;;;5.77;;
20042;SDS011;10182;52.896;6.496;2023-09-30T00:40:58;16.40;;;5.93;;
20042;SDS011;10182;52.896;6.496;2023-09-30T00:46:02;14.30;;;6.20;;
20042;SDS011;10182;52.896;6.496;2023-09-30T00:51:06;16.30;;;6.50;;
20042;SDS011;10182;52.896;6.496;2023-09-30T00:56:09;17.13;;;5.77;;
20042;SDS011;10182;52.896;6.496;2023-09-30T01:01:12;16.40;;;5.77;;
20042;SDS011;10182;52.896;6.496;2023-09-30T01:06:14;17.87;;;5.97;;
20042;SDS011;10182;52.896;6.496;2023-09-30T01:11:17;15.87;;;7.03;;
20042;SDS011;10182;52.896;6.496;2023-09-30T01:16:18;17.00;;;6.03;;
20042;SDS011;10182;52.896;6.496;2023-09-30T01:21:20;15.30;;;6.33;;
20042;SDS011;10182;52.896;6.496;2023-09-30T01:26:24;14.40;;;6.40;;
20042;SDS011;10182;52.896;6.496;2023-09-30T01:31:26;14.90;;;5.80;;
20042;SDS011;10182;52.896;6.496;2023-09-30T01:36:27;18.43;;;7.27;;
20042;SDS011;10182;52.896;6.496;2023-09-30T01:41:31;12.97;;;6.50;;
20042;SDS011;10182;52.896;6.496;2023-09-30T01:46:32;17.47;;;7.30;;
20042;SDS011;10182;52.896;6.496;2023-09-30T01:51:34;19.00;;;6.87;;
20042;SDS011;10182;52.896;6.496;2023-09-30T01:56:37;14.03;;;6.83;;
20042;SDS011;10182;52.896;6.496;2023-09-30T02:01:39;15.00;;;6.87;;
20042;SDS011;10182;52.896;6.496;2023-09-30T02:06:41;17.80;;;6.90;;
20042;SDS011;10182;52.896;6.496;2023-09-30T02:11:44;16.93;;;7.63;;
20042;SDS011;10182;52.896;6.496;2023-09-30T02:16:45;16.10;;;7.07;;
20042;SDS011;10182;52.896;6.496;2023-09-30T02:21:47;16.87;;;7.30;;
20042;SDS011;10182;52.896;6.496;2023-09-30T02:26:50;13.73;;;7.63;;
20042;SDS011;10182;52.896;6.496;2023-09-30T02:31:53;18.57;;;7.53;;
20042;SDS011;10182;52.896;6.496;2023-09-30T02:36:55;20.50;;;7.27;;
20042;SDS011;10182;52.896;6.496;2023-09-30T02:41:58;16.93;;;7.67;;
20042;SDS011;10182;52.896;6.496;2023-09-30T02:47:00;18.03;;;6.90;;
20042;SDS011;10182;52.896;6.496;2023-09-30T02:52:02;18.93;;;7.17;;
20042;SDS011;10182;52.896;6.496;2023-09-30T02:57:05;17.60;;;7.87;;
20042;SDS011;10182;52.896;6.496;2023-09-30T03:02:09;20.10;;;7.23;;
20042;SDS011;10182;52.896;6.496;2023-09-30T03:07:11;18.93;;;7.20;;
20042;SDS011;10182;52.896;6.496;2023-09-30T03:12:15;14.87;;;6.70;;
20042;SDS011;10182;52.896;6.496;2023-09-30T03:17:17;16.57;;;6.27;;
20042;SDS011;10182;52.896;6.496;2023-09-30T03:22:19;18.30;;;7.13;;
20042;SDS011;10182;52.896;6.496;2023-09-30T03:27:22;17.23;;;7.63;;
20042;SDS011;10182;52.896;6.496;2023-09-30T03:32:24;17.13;;;6.60;;
20042;SDS011;10182;52.896;6.496;2023-09-30T03:37:26;17.70;;;7.23;;
20042;SDS011;10182;52.896;6.496;2023-09-30T03:42:32;18.17;;;7.77;;
20042;SDS011;10182;52.896;6.496;2023-09-30T03:47:35;14.77;;;7.10;;
20042;SDS011;10182;52.896;6.496;2023-09-30T03:52:37;18.53;;;7.77;;
20042;SDS011;10182;52.896;6.496;2023-09-30T03:57:40;17.30;;;7.47;;
20042;SDS011;10182;52.896;6.496;2023-09-30T04:02:42;20.70;;;7.40;;
20042;SDS011;10182;52.896;6.496;2023-09-30T04:07:45;16.27;;;7.80;;
20042;SDS011;10182;52.896;6.496;2023-09-30T04:12:48;16.20;;;7.70;;
20042;SDS011;10182;52.896;6.496;2023-09-30T04:17:50;12.83;;;6.77;;
20042;SDS011;10182;52.896;6.496;2023-09-30T04:22:52;18.97;;;7.40;;
20042;SDS011;10182;52.896;6.496;2023-09-30T04:27:58;18.43;;;7.90;;
20042;SDS011;10182;52.896;6.496;2023-09-30T04:33:00;15.90;;;8.20;;
20042;SDS011;10182;52.896;6.496;2023-09-30T04:38:04;13.63;;;8.23;;
20042;SDS011;10182;52.896;6.496;2023-09-30T04:43:07;19.20;;;9.70;;
20042;SDS011;10182;52.896;6.496;2023-09-30T04:48:09;17.23;;;8.77;;
20042;SDS011;10182;52.896;6.496;2023-09-30T04:53:11;17.00;;;8.60;;
20042;SDS011;10182;52.896;6.496;2023-09-30T04:58:14;19.80;;;9.87;;
20042;SDS011;10182;52.896;6.496;2023-09-30T05:03:16;22.27;;;10.03;;
20042;SDS011;10182;52.896;6.496;2023-09-30T05:08:19;20.67;;;10.50;;
20042;SDS011;10182;52.896;6.496;2023-09-30T05:13:22;21.40;;;11.13;;
20042;SDS011;10182;52.896;6.496;2023-09-30T05:18:24;17.53;;;11.50;;
20042;SDS011;10182;52.896;6.496;2023-09-30T05:23:25;21.13;;;11.33;;
20042;SDS011;10182;52.896;6.496;2023-09-30T05:28:29;24.77;;;12.63;;
20042;SDS011;10182;52.896;6.496;2023-09-30T05:33:31;20.33;;;12.50;;
20042;SDS011;10182;52.896;6.496;2023-09-30T05:38:33;20.13;;;12.30;;
20042;SDS011;10182;52.896;6.496;2023-09-30T05:43:36;24.27;;;12.93;;
20042;SDS011;10182;52.896;6.496;2023-09-30T05:48:38;23.30;;;13.50;;
20042;SDS011;10182;52.896;6.496;2023-09-30T05:53:40;25.17;;;13.27;;
20042;SDS011;10182;52.896;6.496;2023-09-30T05:58:43;23.03;;;13.60;;
20042;SDS011;10182;52.896;6.496;2023-09-30T06:03:45;22.73;;;12.53;;
20042;SDS011;10182;52.896;6.496;2023-09-30T06:08:47;22.33;;;14.07;;
20042;SDS011;10182;52.896;6.496;2023-09-30T06:13:51;22.93;;;13.93;;
20042;SDS011;10182;52.896;6.496;2023-09-30T06:18:54;25.87;;;14.57;;
20042;SDS011;10182;52.896;6.496;2023-09-30T06:23:55;23.53;;;14.60;;
20042;SDS011;10182;52.896;6.496;2023-09-30T06:28:58;27.47;;;14.60;;
20042;SDS011;10182;52.896;6.496;2023-09-30T06:34:00;27.17;;;14.40;;
20042;SDS011;10182;52.896;6.496;2023-09-30T06:39:02;22.10;;;13.57;;
20042;SDS011;10182;52.896;6.496;2023-09-30T06:44:07;20.07;;;13.33;;
20042;SDS011;10182;52.896;6.496;2023-09-30T06:49:09;20.30;;;13.53;;
20042;SDS011;10182;52.896;6.496;2023-09-30T06:54:10;22.03;;;13.70;;
20042;SDS011;10182;52.896;6.496;2023-09-30T06:59:13;26.27;;;14.77;;
20042;SDS011;10182;52.896;6.496;2023-09-30T07:04:15;20.63;;;12.93;;
20042;SDS011;10182;52.896;6.496;2023-09-30T07:09:17;19.43;;;13.07;;
20042;SDS011;10182;52.896;6.496;2023-09-30T07:14:21;22.30;;;13.90;;
20042;SDS011;10182;52.896;6.496;2023-09-30T07:19:23;23.57;;;14.27;;
20042;SDS011;10182;52.896;6.496;2023-09-30T07:24:24;18.90;;;14.20;;
20042;SDS011;10182;52.896;6.496;2023-09-30T07:29:27;21.20;;;13.87;;
20042;SDS011;10182;52.896;6.496;2023-09-30T07:34:32;17.90;;;13.90;;
20042;SDS011;10182;52.896;6.496;2023-09-30T07:39:34;22.80;;;14.53;;
20042;SDS011;10182;52.896;6.496;2023-09-30T07:44:37;22.23;;;13.70;;
20042;SDS011;10182;52.896;6.496;2023-09-30T07:49:39;23.37;;;14.33;;
20042;SDS011;10182;52.896;6.496;2023-09-30T07:54:41;24.70;;;12.97;;
20042;SDS011;10182;52.896;6.496;2023-09-30T07:59:44;19.53;;;13.33;;
20042;SDS011;10182;52.896;6.496;2023-09-30T08:04:46;25.87;;;13.50;;
20042;SDS011;10182;52.896;6.496;2023-09-30T08:09:48;19.60;;;12.53;;
20042;SDS011;10182;52.896;6.496;2023-09-30T08:14:51;19.87;;;13.20;;
20042;SDS011;10182;52.896;6.496;2023-09-30T08:19:53;20.23;;;11.77;;
20042;SDS011;10182;52.896;6.496;2023-09-30T08:24:55;16.90;;;12.23;;
20042;SDS011;10182;52.896;6.496;2023-09-30T08:29:58;17.97;;;11.50;;
20042;SDS011;10182;52.896;6.496;2023-09-30T08:35:00;15.10;;;10.73;;
20042;SDS011;10182;52.896;6.496;2023-09-30T08:40:03;18.73;;;11.57;;
20042;SDS011;10182;52.896;6.496;2023-09-30T08:45:08;16.37;;;11.13;;
20042;SDS011;10182;52.896;6.496;2023-09-30T08:50:15;22.87;;;12.13;;
20042;SDS011;10182;52.896;6.496;2023-09-30T08:55:17;20.50;;;11.27;;
20042;SDS011;10182;52.896;6.496;2023-09-30T09:00:21;18.23;;;9.97;;
20042;SDS011;10182;52.896;6.496;2023-09-30T09:05:23;17.87;;;11.13;;
20042;SDS011;10182;52.896;6.496;2023-09-30T09:10:24;17.23;;;10.70;;
20042;SDS011;10182;52.896;6.496;2023-09-30T09:15:27;14.37;;;10.03;;
20042;SDS011;10182;52.896;6.496;2023-09-30T09:20:30;18.80;;;10.30;;
20042;SDS011;10182;52.896;6.496;2023-09-30T09:25:33;20.47;;;10.83;;
20042;SDS011;10182;52.896;6.496;2023-09-30T09:30:41;15.70;;;9.70;;
20042;SDS011;10182;52.896;6.496;2023-09-30T09:35:43;16.37;;;8.83;;
20042;SDS011;10182;52.896;6.496;2023-09-30T09:40:49;13.63;;;8.80;;
20042;SDS011;10182;52.896;6.496;2023-09-30T09:45:52;12.30;;;7.97;;
20042;SDS011;10182;52.896;6.496;2023-09-30T09:50:57;14.30;;;8.57;;
20042;SDS011;10182;52.896;6.496;2023-09-30T09:56:00;15.27;;;7.07;;
20042;SDS011;10182;52.896;6.496;2023-09-30T10:01:06;10.67;;;5.50;;
20042;SDS011;10182;52.896;6.496;2023-09-30T10:06:10;12.77;;;6.70;;
20042;SDS011;10182;52.896;6.496;2023-09-30T10:11:16;11.17;;;5.93;;
20042;SDS011;10182;52.896;6.496;2023-09-30T10:27:33;12.57;;;7.23;;
20042;SDS011;10182;52.896;6.496;2023-09-30T10:43:46;12.77;;;5.60;;
20042;SDS011;10182;52.896;6.496;2023-09-30T10:48:49;11.17;;;5.23;;
20042;SDS011;10182;52.896;6.496;2023-09-30T10:53:51;12.57;;;5.37;;
20042;SDS011;10182;52.896;6.496;2023-09-30T10:58:56;8.50;;;3.63;;
20042;SDS011;10182;52.896;6.496;2023-09-30T11:04:01;6.23;;;3.43;;
20042;SDS011;10182;52.896;6.496;2023-09-30T11:09:04;7.57;;;2.80;;
20042;SDS011;10182;52.896;6.496;2023-09-30T11:14:21;10.73;;;4.33;;
20042;SDS011;10182;52.896;6.496;2023-09-30T11:19:25;9.90;;;3.27;;
20042;SDS011;10182;52.896;6.496;2023-09-30T11:24:27;10.20;;;2.67;;
20042;SDS011;10182;52.896;6.496;2023-09-30T11:29:29;7.33;;;2.47;;
20042;SDS011;10182;52.896;6.496;2023-09-30T11:34:33;4.83;;;2.13;;
20042;SDS011;10182;52.896;6.496;2023-09-30T11:39:36;6.70;;;2.30;;
20042;SDS011;10182;52.896;6.496;2023-09-30T11:44:43;8.20;;;2.33;;
20042;SDS011;10182;52.896;6.496;2023-09-30T11:49:53;8.50;;;2.33;;
20042;SDS011;10182;52.896;6.496;2023-09-30T11:54:55;5.90;;;2.00;;
20042;SDS011;10182;52.896;6.496;2023-09-30T11:59:58;3.83;;;1.77;;
20042;SDS011;10182;52.896;6.496;2023-09-30T12:05:01;6.57;;;2.20;;
20042;SDS011;10182;52.896;6.496;2023-09-30T12:10:03;4.50;;;1.80;;
20042;SDS011;10182;52.896;6.496;2023-09-30T12:15:05;6.90;;;2.20;;
20042;SDS011;10182;52.896;6.496;2023-09-30T12:20:10;5.93;;;2.10;;
20042;SDS011;10182;52.896;6.496;2023-09-30T12:25:14;5.93;;;2.00;;
20042;SDS011;10182;52.896;6.496;2023-09-30T12:30:19;7.50;;;2.50;;
20042;SDS011;10182;52.896;6.496;2023-09-30T12:35:22;6.17;;;1.83;;
20042;SDS011;10182;52.896;6.496;2023-09-30T12:40:24;6.10;;;2.03;;
20042;SDS011;10182;52.896;6.496;2023-09-30T12:45:25;5.13;;;1.87;;
20042;SDS011;10182;52.896;6.496;2023-09-30T12:50:28;6.73;;;2.37;;
20042;SDS011;10182;52.896;6.496;2023-09-30T12:55:30;5.93;;;1.97;;
20042;SDS011;10182;52.896;6.496;2023-09-30T13:00:32;5.63;;;2.13;;
20042;SDS011;10182;52.896;6.496;2023-09-30T13:05:35;5.57;;;2.07;;
20042;SDS011;10182;52.896;6.496;2023-09-30T13:10:37;6.00;;;2.27;;
20042;SDS011;10182;52.896;6.496;2023-09-30T13:15:38;6.97;;;1.97;;
20042;SDS011;10182;52.896;6.496;2023-09-30T13:20:42;8.13;;;1.90;;
20042;SDS011;10182;52.896;6.496;2023-09-30T13:25:43;5.50;;;1.97;;
20042;SDS011;10182;52.896;6.496;2023-09-30T13:30:45;5.37;;;2.10;;
20042;SDS011;10182;52.896;6.496;2023-09-30T13:35:49;7.73;;;2.23;;
20042;SDS011;10182;52.896;6.496;2023-09-30T13:40:51;4.33;;;2.40;;
20042;SDS011;10182;52.896;6.496;2023-09-30T13:45:53;4.23;;;1.77;;
20042;SDS011;10182;52.896;6.496;2023-09-30T13:50:56;6.30;;;2.17;;
20042;SDS011;10182;52.896;6.496;2023-09-30T13:56:06;10.00;;;2.80;;
20042;SDS011;10182;52.896;6.496;2023-09-30T14:01:08;5.93;;;2.17;;
20042;SDS011;10182;52.896;6.496;2023-09-30T14:06:12;7.47;;;2.10;;
20042;SDS011;10182;52.896;6.496;2023-09-30T14:11:14;8.37;;;2.03;;
20042;SDS011;10182;52.896;6.496;2023-09-30T14:16:16;7.33;;;2.03;;
20042;SDS011;10182;52.896;6.496;2023-09-30T14:21:19;5.53;;;1.80;;
20042;SDS011;10182;52.896;6.496;2023-09-30T14:26:20;5.87;;;2.00;;
20042;SDS011;10182;52.896;6.496;2023-09-30T14:31:22;5.30;;;2.20;;
20042;SDS011;10182;52.896;6.496;2023-09-30T14:36:25;8.70;;;2.37;;
20042;SDS011;10182;52.896;6.496;2023-09-30T14:41:27;8.60;;;2.27;;
20042;SDS011;10182;52.896;6.496;2023-09-30T14:46:29;8.17;;;2.00;;
20042;SDS011;10182;52.896;6.496;2023-09-30T14:51:32;6.13;;;2.00;;
20042;SDS011;10182;52.896;6.496;2023-09-30T14:56:34;7.53;;;2.40;;
20042;SDS011;10182;52.896;6.496;2023-09-30T15:01:36;7.07;;;1.87;;
20042;SDS011;10182;52.896;6.496;2023-09-30T15:06:39;5.87;;;1.83;;
20042;SDS011;10182;52.896;6.496;2023-09-30T15:11:41;4.23;;;1.40;;
20042;SDS011;10182;52.896;6.496;2023-09-30T15:16:43;10.10;;;2.17;;
20042;SDS011;10182;52.896;6.496;2023-09-30T15:21:46;8.53;;;2.20;;
20042;SDS011;10182;52.896;6.496;2023-09-30T15:26:48;6.90;;;2.20;;
20042;SDS011;10182;52.896;6.496;2023-09-30T15:31:49;6.13;;;1.70;;
20042;SDS011;10182;52.896;6.496;2023-09-30T15:36:52;5.53;;;1.90;;
20042;SDS011;10182;52.896;6.496;2023-09-30T15:41:54;8.03;;;2.13;;
20042;SDS011;10182;52.896;6.496;2023-09-30T15:46:55;26.60;;;21.37;;
20042;SDS011;10182;52.896;6.496;2023-09-30T15:51:58;12.70;;;7.40;;
20042;SDS011;10182;52.896;6.496;2023-09-30T15:57:00;38.80;;;30.70;;
20042;SDS011;10182;52.896;6.496;2023-09-30T16:02:02;34.63;;;27.23;;
20042;SDS011;10182;52.896;6.496;2023-09-30T16:07:05;16.57;;;5.13;;
20042;SDS011;10182;52.896;6.496;2023-09-30T16:12:06;10.17;;;2.90;;
20042;SDS011;10182;52.896;6.496;2023-09-30T16:17:08;6.97;;;4.03;;
20042;SDS011;10182;52.896;6.496;2023-09-30T16:22:12;19.50;;;15.00;;
20042;SDS011;10182;52.896;6.496;2023-09-30T16:27:14;9.23;;;4.73;;
20042;SDS011;10182;52.896;6.496;2023-09-30T16:32:16;9.47;;;4.33;;
20042;SDS011;10182;52.896;6.496;2023-09-30T16:37:19;13.67;;;7.13;;
20042;SDS011;10182;52.896;6.496;2023-09-30T16:42:20;10.77;;;4.60;;
20042;SDS011;10182;52.896;6.496;2023-09-30T16:47:22;6.47;;;2.83;;
20042;SDS011;10182;52.896;6.496;2023-09-30T16:52:25;12.80;;;5.27;;
20042;SDS011;10182;52.896;6.496;2023-09-30T16:57:27;17.27;;;8.00;;
20042;SDS011;10182;52.896;6.496;2023-09-30T17:02:29;10.50;;;4.47;;
20042;SDS011;10182;52.896;6.496;2023-09-30T17:07:32;8.60;;;4.07;;
20042;SDS011;10182;52.896;6.496;2023-09-30T17:12:33;7.83;;;4.23;;
20042;SDS011;10182;52.896;6.496;2023-09-30T17:17:35;17.13;;;9.83;;
20042;SDS011;10182;52.896;6.496;2023-09-30T17:22:39;8.07;;;4.00;;
20042;SDS011;10182;52.896;6.496;2023-09-30T17:27:41;8.77;;;4.10;;
20042;SDS011;10182;52.896;6.496;2023-09-30T17:32:43;10.10;;;4.93;;
20042;SDS011;10182;52.896;6.496;2023-09-30T17:37:46;14.47;;;6.73;;
20042;SDS011;10182;52.896;6.496;2023-09-30T17:42:48;8.43;;;4.60;;
20042;SDS011;10182;52.896;6.496;2023-09-30T17:47:50;18.60;;;9.20;;
20042;SDS011;10182;52.896;6.496;2023-09-30T17:52:53;14.13;;;8.17;;
20042;SDS011;10182;52.896;6.496;2023-09-30T17:57:54;12.73;;;6.17;;
20042;SDS011;10182;52.896;6.496;2023-09-30T18:02:57;9.90;;;5.90;;
20042;SDS011;10182;52.896;6.496;2023-09-30T18:08:00;10.37;;;4.70;;
20042;SDS011;10182;52.896;6.496;2023-09-30T18:13:01;16.43;;;8.77;;
20042;SDS011;10182;52.896;6.496;2023-09-30T18:18:03;13.80;;;7.17;;
20042;SDS011;10182;52.896;6.496;2023-09-30T18:23:07;7.40;;;4.33;;
20042;SDS011;10182;52.896;6.496;2023-09-30T18:28:09;10.33;;;4.50;;
20042;SDS011;10182;52.896;6.496;2023-09-30T18:33:11;9.23;;;3.67;;
20042;SDS011;10182;52.896;6.496;2023-09-30T18:38:15;8.37;;;3.30;;
20042;SDS011;10182;52.896;6.496;2023-09-30T18:43:17;10.13;;;4.70;;
20042;SDS011;10182;52.896;6.496;2023-09-30T18:48:21;13.00;;;6.47;;
20042;SDS011;10182;52.896;6.496;2023-09-30T18:53:26;11.53;;;5.57;;
20042;SDS011;10182;52.896;6.496;2023-09-30T18:58:28;10.53;;;4.87;;
20042;SDS011;10182;52.896;6.496;2023-09-30T19:03:30;12.87;;;5.10;;
20042;SDS011;10182;52.896;6.496;2023-09-30T19:08:33;13.40;;;5.57;;
20042;SDS011;10182;52.896;6.496;2023-09-30T19:13:35;9.97;;;5.33;;
20042;SDS011;10182;52.896;6.496;2023-09-30T19:18:39;10.53;;;6.00;;
20042;SDS011;10182;52.896;6.496;2023-09-30T19:23:42;13.73;;;7.07;;
20042;SDS011;10182;52.896;6.496;2023-09-30T19:28:44;15.70;;;5.97;;
20042;SDS011;10182;52.896;6.496;2023-09-30T19:33:46;16.67;;;5.87;;
20042;SDS011;10182;52.896;6.496;2023-09-30T19:38:50;8.93;;;5.37;;
20042;SDS011;10182;52.896;6.496;2023-09-30T19:43:51;12.87;;;5.43;;
20042;SDS011;10182;52.896;6.496;2023-09-30T19:48:53;13.83;;;6.53;;
20042;SDS011;10182;52.896;6.496;2023-09-30T19:53:56;15.37;;;5.90;;
20042;SDS011;10182;52.896;6.496;2023-09-30T19:58:58;17.83;;;10.90;;
20042;SDS011;10182;52.896;6.496;2023-09-30T20:04:00;14.90;;;7.90;;
20042;SDS011;10182;52.896;6.496;2023-09-30T20:09:03;14.03;;;8.67;;
20042;SDS011;10182;52.896;6.496;2023-09-30T20:14:05;17.87;;;9.60;;
20042;SDS011;10182;52.896;6.496;2023-09-30T20:19:06;17.73;;;8.03;;
20042;SDS011;10182;52.896;6.496;2023-09-30T20:24:09;16.70;;;12.40;;
20042;SDS011;10182;52.896;6.496;2023-09-30T20:29:11;45.47;;;30.97;;
20042;SDS011;10182;52.896;6.496;2023-09-30T20:34:13;41.87;;;31.83;;
20042;SDS011;10182;52.896;6.496;2023-09-30T20:39:16;36.43;;;24.97;;
20042;SDS011;10182;52.896;6.496;2023-09-30T20:44:18;46.40;;;32.03;;
20042;SDS011;10182;52.896;6.496;2023-09-30T20:49:20;70.17;;;50.53;;
20042;SDS011;10182;52.896;6.496;2023-09-30T20:54:23;59.83;;;43.17;;
20042;SDS011;10182;52.896;6.496;2023-09-30T20:59:25;29.33;;;20.07;;
20042;SDS011;10182;52.896;6.496;2023-09-30T21:04:27;21.90;;;14.60;;
20042;SDS011;10182;52.896;6.496;2023-09-30T21:09:32;16.60;;;11.73;;
20042;SDS011;10182;52.896;6.496;2023-09-30T21:14:34;18.90;;;10.87;;
20042;SDS011;10182;52.896;6.496;2023-09-30T21:19:35;12.13;;;9.20;;
20042;SDS011;10182;52.896;6.496;2023-09-30T21:24:38;15.17;;;9.87;;
20042;SDS011;10182;52.896;6.496;2023-09-30T21:29:40;15.80;;;9.63;;
20042;SDS011;10182;52.896;6.496;2023-09-30T21:34:42;16.03;;;9.60;;
20042;SDS011;10182;52.896;6.496;2023-09-30T21:39:45;14.97;;;9.13;;
20042;SDS011;10182;52.896;6.496;2023-09-30T21:44:46;13.50;;;9.50;;
20042;SDS011;10182;52.896;6.496;2023-09-30T21:49:48;17.93;;;9.57;;
20042;SDS011;10182;52.896;6.496;2023-09-30T21:54:51;16.30;;;8.73;;
20042;SDS011;10182;52.896;6.496;2023-09-30T21:59:53;16.07;;;9.17;;
20042;SDS011;10182;52.896;6.496;2023-09-30T22:04:55;13.90;;;9.33;;
20042;SDS011;10182;52.896;6.496;2023-09-30T22:09:58;12.23;;;8.73;;
20042;SDS011;10182;52.896;6.496;2023-09-30T22:14:59;14.33;;;9.37;;
20042;SDS011;10182;52.896;6.496;2023-09-30T22:20:02;17.20;;;9.30;;
20042;SDS011;10182;52.896;6.496;2023-09-30T22:25:06;15.17;;;9.30;;
20042;SDS011;10182;52.896;6.496;2023-09-30T22:30:09;15.93;;;9.47;;
20042;SDS011;10182;52.896;6.496;2023-09-30T22:35:13;14.30;;;10.00;;
20042;SDS011;10182;52.896;6.496;2023-09-30T22:40:16;15.27;;;10.00;;
20042;SDS011;10182;52.896;6.496;2023-09-30T22:45:18;15.73;;;11.03;;
20042;SDS011;10182;52.896;6.496;2023-09-30T22:50:20;18.40;;;10.43;;
20042;SDS011;10182;52.896;6.496;2023-09-30T22:55:24;15.33;;;10.17;;
20042;SDS011;10182;52.896;6.496;2023-09-30T23:00:27;18.57;;;11.37;;
20042;SDS011;10182;52.896;6.496;2023-09-30T23:05:28;17.27;;;10.80;;
20042;SDS011;10182;52.896;6.496;2023-09-30T23:10:31;20.30;;;11.70;;
20042;SDS011;10182;52.896;6.496;2023-09-30T23:15:33;19.77;;;11.63;;
20042;SDS011;10182;52.896;6.496;2023-09-30T23:20:35;23.27;;;12.33;;
20042;SDS011;10182;52.896;6.496;2023-09-30T23:25:40;16.97;;;11.23;;
20042;SDS011;10182;52.896;6.496;2023-09-30T23:30:43;22.53;;;12.40;;
20042;SDS011;10182;52.896;6.496;2023-09-30T23:35:45;20.70;;;11.47;;
20042;SDS011;10182;52.896;6.496;2023-09-30T23:40:49;19.63;;;10.67;;
20042;SDS011;10182;52.896;6.496;2023-09-30T23:45:51;18.73;;;10.10;;
20042;SDS011;10182;52.896;6.496;2023-09-30T23:50:53;20.50;;;11.67;;
20042;SDS011;10182;52.896;6.496;2023-09-30T23:55:57;18.73;;;11.53;;
